sensor_id;sensor_type;location;lat;lon;timestamp;P1;durP1;ratioP1;P2;durP2;ratioP2
43990;SDS011;29654;50.784;20.604;2022-07-21T00:04:12;6.22;;;5.63;;
43990;SDS011;29654;50.784;20.604;2022-07-21T00:09:15;7.07;;;5.30;;
43990;SDS011;29654;50.784;20.604;2022-07-21T00:14:20;5.80;;;5.20;;
43990;SDS011;29654;50.784;20.604;2022-07-21T00:19:23;6.80;;;5.78;;
43990;SDS011;29654;50.784;20.604;2022-07-21T00:24:26;6.85;;;5.03;;
43990;SDS011;29654;50.784;20.604;2022-07-21T00:29:30;5.80;;;5.13;;
43990;SDS011;29654;50.784;20.604;2022-07-21T00:34:33;5.53;;;4.72;;
43990;SDS011;29654;50.784;20.604;2022-07-21T00:39:36;5.65;;;5.15;;
43990;SDS011;29654;50.784;20.604;2022-07-21T00:44:40;5.18;;;4.63;;
43990;SDS011;29654;50.784;20.604;2022-07-21T00:49:43;5.53;;;4.70;;
43990;SDS011;29654;50.784;20.604;2022-07-21T00:54:47;4.93;;;4.53;;
43990;SDS011;29654;50.784;20.604;2022-07-21T00:59:51;6.53;;;4.63;;
43990;SDS011;29654;50.784;20.604;2022-07-21T01:04:54;5.15;;;4.65;;
43990;SDS011;29654;50.784;20.604;2022-07-21T01:09:57;4.10;;;3.70;;
43990;SDS011;29654;50.784;20.604;2022-07-21T01:15:03;4.82;;;4.38;;
43990;SDS011;29654;50.784;20.604;2022-07-21T01:20:08;6.78;;;4.93;;
43990;SDS011;29654;50.784;20.604;2022-07-21T01:25:20;6.20;;;4.60;;
43990;SDS011;29654;50.784;20.604;2022-07-21T01:30:23;6.55;;;4.70;;
43990;SDS011;29654;50.784;20.604;2022-07-21T01:35:26;4.90;;;4.50;;
43990;SDS011;29654;50.784;20.604;2022-07-21T01:40:30;5.15;;;4.40;;
43990;SDS011;29654;50.784;20.604;2022-07-21T01:45:50;4.68;;;4.28;;
43990;SDS011;29654;50.784;20.604;2022-07-21T01:50:53;4.60;;;4.20;;
43990;SDS011;29654;50.784;20.604;2022-07-21T01:55:57;5.07;;;4.47;;
43990;SDS011;29654;50.784;20.604;2022-07-21T02:01:00;5.03;;;4.55;;
43990;SDS011;29654;50.784;20.604;2022-07-21T02:06:04;5.18;;;4.78;;
43990;SDS011;29654;50.784;20.604;2022-07-21T02:11:11;4.90;;;4.50;;
43990;SDS011;29654;50.784;20.604;2022-07-21T02:16:15;4.72;;;4.20;;
43990;SDS011;29654;50.784;20.604;2022-07-21T02:21:18;5.13;;;4.63;;
43990;SDS011;29654;50.784;20.604;2022-07-21T02:26:22;5.43;;;4.88;;
43990;SDS011;29654;50.784;20.604;2022-07-21T02:31:25;5.43;;;4.93;;
43990;SDS011;29654;50.784;20.604;2022-07-21T02:36:28;5.07;;;4.68;;
43990;SDS011;29654;50.784;20.604;2022-07-21T02:41:32;5.20;;;4.63;;
43990;SDS011;29654;50.784;20.604;2022-07-21T02:46:35;5.07;;;4.57;;
43990;SDS011;29654;50.784;20.604;2022-07-21T02:51:38;4.82;;;4.43;;
43990;SDS011;29654;50.784;20.604;2022-07-21T02:56:42;5.07;;;4.63;;
43990;SDS011;29654;50.784;20.604;2022-07-21T03:01:45;4.70;;;4.32;;
43990;SDS011;29654;50.784;20.604;2022-07-21T03:06:48;5.05;;;4.22;;
43990;SDS011;29654;50.784;20.604;2022-07-21T03:11:52;5.97;;;4.97;;
43990;SDS011;29654;50.784;20.604;2022-07-21T03:16:55;6.50;;;4.90;;
43990;SDS011;29654;50.784;20.604;2022-07-21T03:22:00;5.32;;;4.93;;
43990;SDS011;29654;50.784;20.604;2022-07-21T03:27:05;5.38;;;4.88;;
43990;SDS011;29654;50.784;20.604;2022-07-21T03:32:08;5.43;;;4.90;;
43990;SDS011;29654;50.784;20.604;2022-07-21T03:37:11;5.47;;;4.07;;
43990;SDS011;29654;50.784;20.604;2022-07-21T03:42:15;5.13;;;4.53;;
43990;SDS011;29654;50.784;20.604;2022-07-21T03:47:18;5.20;;;4.60;;
43990;SDS011;29654;50.784;20.604;2022-07-21T03:52:21;5.15;;;4.75;;
43990;SDS011;29654;50.784;20.604;2022-07-21T03:57:25;4.60;;;4.20;;
43990;SDS011;29654;50.784;20.604;2022-07-21T04:02:28;4.30;;;3.90;;
43990;SDS011;29654;50.784;20.604;2022-07-21T04:07:31;4.90;;;4.15;;
43990;SDS011;29654;50.784;20.604;2022-07-21T04:12:35;4.28;;;3.88;;
43990;SDS011;29654;50.784;20.604;2022-07-21T04:17:39;4.28;;;3.42;;
43990;SDS011;29654;50.784;20.604;2022-07-21T04:22:43;3.92;;;3.63;;
43990;SDS011;29654;50.784;20.604;2022-07-21T04:27:50;4.15;;;3.75;;
43990;SDS011;29654;50.784;20.604;2022-07-21T04:32:53;4.43;;;4.10;;
43990;SDS011;29654;50.784;20.604;2022-07-21T04:37:57;3.95;;;3.65;;
43990;SDS011;29654;50.784;20.604;2022-07-21T04:43:03;3.83;;;3.53;;
43990;SDS011;29654;50.784;20.604;2022-07-21T04:48:08;3.60;;;3.30;;
43990;SDS011;29654;50.784;20.604;2022-07-21T04:53:11;3.75;;;3.45;;
43990;SDS011;29654;50.784;20.604;2022-07-21T04:58:15;4.60;;;4.03;;
43990;SDS011;29654;50.784;20.604;2022-07-21T05:03:18;3.65;;;3.10;;
43990;SDS011;29654;50.784;20.604;2022-07-21T05:08:21;6.28;;;3.42;;
43990;SDS011;29654;50.784;20.604;2022-07-21T05:13:28;3.40;;;3.10;;
43990;SDS011;29654;50.784;20.604;2022-07-21T05:18:32;3.72;;;3.42;;
43990;SDS011;29654;50.784;20.604;2022-07-21T05:23:35;3.58;;;3.30;;
43990;SDS011;29654;50.784;20.604;2022-07-21T05:28:40;3.40;;;2.75;;
43990;SDS011;29654;50.784;20.604;2022-07-21T05:33:43;2.97;;;2.75;;
43990;SDS011;29654;50.784;20.604;2022-07-21T05:38:47;3.50;;;3.20;;
43990;SDS011;29654;50.784;20.604;2022-07-21T05:43:51;3.85;;;2.90;;
43990;SDS011;29654;50.784;20.604;2022-07-21T05:48:55;5.78;;;2.75;;
43990;SDS011;29654;50.784;20.604;2022-07-21T05:53:57;2.78;;;2.47;;
43990;SDS011;29654;50.784;20.604;2022-07-21T05:59:03;4.82;;;2.40;;
43990;SDS011;29654;50.784;20.604;2022-07-21T06:04:06;2.60;;;2.40;;
43990;SDS011;29654;50.784;20.604;2022-07-21T06:09:09;2.60;;;2.40;;
43990;SDS011;29654;50.784;20.604;2022-07-21T06:14:14;3.85;;;1.90;;
43990;SDS011;29654;50.784;20.604;2022-07-21T06:19:17;2.60;;;2.17;;
43990;SDS011;29654;50.784;20.604;2022-07-21T06:24:20;2.50;;;2.13;;
43990;SDS011;29654;50.784;20.604;2022-07-21T06:29:24;2.03;;;1.90;;
43990;SDS011;29654;50.784;20.604;2022-07-21T06:34:27;3.17;;;2.17;;
43990;SDS011;29654;50.784;20.604;2022-07-21T06:39:30;2.35;;;2.15;;
43990;SDS011;29654;50.784;20.604;2022-07-21T06:44:34;3.45;;;2.30;;
43990;SDS011;29654;50.784;20.604;2022-07-21T06:49:37;3.15;;;2.70;;
43990;SDS011;29654;50.784;20.604;2022-07-21T06:54:40;5.00;;;2.67;;
43990;SDS011;29654;50.784;20.604;2022-07-21T06:59:44;3.63;;;2.58;;
43990;SDS011;29654;50.784;20.604;2022-07-21T07:04:47;2.95;;;2.13;;
43990;SDS011;29654;50.784;20.604;2022-07-21T07:09:50;2.08;;;1.92;;
43990;SDS011;29654;50.784;20.604;2022-07-21T07:14:54;2.58;;;1.92;;
43990;SDS011;29654;50.784;20.604;2022-07-21T07:19:57;2.45;;;2.05;;
43990;SDS011;29654;50.784;20.604;2022-07-21T07:25:00;2.38;;;2.15;;
43990;SDS011;29654;50.784;20.604;2022-07-21T07:30:05;2.30;;;2.10;;
43990;SDS011;29654;50.784;20.604;2022-07-21T07:35:10;2.38;;;2.17;;
43990;SDS011;29654;50.784;20.604;2022-07-21T07:40:14;2.55;;;2.35;;
43990;SDS011;29654;50.784;20.604;2022-07-21T07:45:20;2.47;;;2.10;;
43990;SDS011;29654;50.784;20.604;2022-07-21T07:50:23;3.85;;;2.30;;
43990;SDS011;29654;50.784;20.604;2022-07-21T07:55:26;2.28;;;2.08;;
43990;SDS011;29654;50.784;20.604;2022-07-21T08:00:31;2.53;;;2.15;;
43990;SDS011;29654;50.784;20.604;2022-07-21T08:05:34;2.15;;;2.00;;
43990;SDS011;29654;50.784;20.604;2022-07-21T08:10:37;2.08;;;1.83;;
43990;SDS011;29654;50.784;20.604;2022-07-21T08:15:41;2.22;;;2.03;;
43990;SDS011;29654;50.784;20.604;2022-07-21T08:20:46;2.30;;;2.03;;
43990;SDS011;29654;50.784;20.604;2022-07-21T08:25:49;2.33;;;2.22;;
43990;SDS011;29654;50.784;20.604;2022-07-21T08:30:54;2.88;;;2.40;;
43990;SDS011;29654;50.784;20.604;2022-07-21T08:35:57;2.17;;;1.98;;
43990;SDS011;29654;50.784;20.604;2022-07-21T08:41:00;2.20;;;2.10;;
43990;SDS011;29654;50.784;20.604;2022-07-21T08:46:05;2.30;;;2.10;;
43990;SDS011;29654;50.784;20.604;2022-07-21T08:51:08;1.70;;;1.60;;
43990;SDS011;29654;50.784;20.604;2022-07-21T08:56:11;2.22;;;2.00;;
43990;SDS011;29654;50.784;20.604;2022-07-21T09:01:15;2.22;;;1.95;;
43990;SDS011;29654;50.784;20.604;2022-07-21T09:06:18;3.75;;;2.25;;
43990;SDS011;29654;50.784;20.604;2022-07-21T09:11:22;2.20;;;2.00;;
43990;SDS011;29654;50.784;20.604;2022-07-21T09:16:36;2.25;;;2.05;;
43990;SDS011;29654;50.784;20.604;2022-07-21T09:21:40;2.22;;;2.05;;
43990;SDS011;29654;50.784;20.604;2022-07-21T09:26:56;2.33;;;2.22;;
43990;SDS011;29654;50.784;20.604;2022-07-21T09:32:12;2.95;;;2.03;;
43990;SDS011;29654;50.784;20.604;2022-07-21T09:37:21;3.08;;;2.35;;
43990;SDS011;29654;50.784;20.604;2022-07-21T09:42:26;2.10;;;1.90;;
43990;SDS011;29654;50.784;20.604;2022-07-21T09:47:33;2.05;;;1.92;;
43990;SDS011;29654;50.784;20.604;2022-07-21T09:52:40;2.25;;;1.70;;
43990;SDS011;29654;50.784;20.604;2022-07-21T09:57:45;4.00;;;2.25;;
43990;SDS011;29654;50.784;20.604;2022-07-21T10:02:50;2.45;;;1.92;;
43990;SDS011;29654;50.784;20.604;2022-07-21T10:07:53;2.72;;;2.00;;
43990;SDS011;29654;50.784;20.604;2022-07-21T10:12:56;2.10;;;2.00;;
43990;SDS011;29654;50.784;20.604;2022-07-21T10:18:01;3.63;;;2.13;;
43990;SDS011;29654;50.784;20.604;2022-07-21T10:23:06;2.05;;;1.85;;
43990;SDS011;29654;50.784;20.604;2022-07-21T10:28:17;2.20;;;1.98;;
43990;SDS011;29654;50.784;20.604;2022-07-21T10:39:12;2.28;;;2.15;;
43990;SDS011;29654;50.784;20.604;2022-07-21T10:44:39;2.45;;;2.25;;
43990;SDS011;29654;50.784;20.604;2022-07-21T10:49:49;2.33;;;1.75;;
43990;SDS011;29654;50.784;20.604;2022-07-21T10:55:13;3.80;;;2.03;;
43990;SDS011;29654;50.784;20.604;2022-07-21T11:00:24;3.00;;;2.13;;
43990;SDS011;29654;50.784;20.604;2022-07-21T11:05:31;3.53;;;2.20;;
43990;SDS011;29654;50.784;20.604;2022-07-21T11:10:36;2.00;;;1.60;;
43990;SDS011;29654;50.784;20.604;2022-07-21T11:15:43;2.42;;;1.42;;
43990;SDS011;29654;50.784;20.604;2022-07-21T11:21:12;1.95;;;1.80;;
43990;SDS011;29654;50.784;20.604;2022-07-21T11:26:17;1.85;;;1.75;;
43990;SDS011;29654;50.784;20.604;2022-07-21T11:31:26;1.67;;;1.58;;
43990;SDS011;29654;50.784;20.604;2022-07-21T11:36:30;1.52;;;1.42;;
43990;SDS011;29654;50.784;20.604;2022-07-21T11:41:34;3.42;;;1.90;;
43990;SDS011;29654;50.784;20.604;2022-07-21T11:46:46;1.83;;;1.48;;
43990;SDS011;29654;50.784;20.604;2022-07-21T11:51:52;2.55;;;1.50;;
43990;SDS011;29654;50.784;20.604;2022-07-21T11:56:59;1.42;;;1.33;;
43990;SDS011;29654;50.784;20.604;2022-07-21T12:02:05;2.58;;;1.77;;
43990;SDS011;29654;50.784;20.604;2022-07-21T12:07:14;3.15;;;1.33;;
43990;SDS011;29654;50.784;20.604;2022-07-21T12:12:31;1.65;;;1.55;;
43990;SDS011;29654;50.784;20.604;2022-07-21T12:17:37;2.00;;;1.83;;
43990;SDS011;29654;50.784;20.604;2022-07-21T12:22:44;3.38;;;1.50;;
43990;SDS011;29654;50.784;20.604;2022-07-21T12:27:50;2.70;;;2.10;;
43990;SDS011;29654;50.784;20.604;2022-07-21T12:33:02;2.03;;;1.88;;
43990;SDS011;29654;50.784;20.604;2022-07-21T12:38:12;2.38;;;1.60;;
43990;SDS011;29654;50.784;20.604;2022-07-21T12:43:20;2.08;;;1.92;;
43990;SDS011;29654;50.784;20.604;2022-07-21T12:48:27;3.53;;;1.50;;
43990;SDS011;29654;50.784;20.604;2022-07-21T12:53:49;4.47;;;1.80;;
43990;SDS011;29654;50.784;20.604;2022-07-21T12:58:55;2.10;;;1.77;;
43990;SDS011;29654;50.784;20.604;2022-07-21T13:04:05;2.08;;;1.88;;
43990;SDS011;29654;50.784;20.604;2022-07-21T13:09:11;2.38;;;1.95;;
43990;SDS011;29654;50.784;20.604;2022-07-21T13:14:16;1.73;;;1.58;;
43990;SDS011;29654;50.784;20.604;2022-07-21T13:19:24;1.95;;;1.77;;
43990;SDS011;29654;50.784;20.604;2022-07-21T13:24:29;2.40;;;2.20;;
43990;SDS011;29654;50.784;20.604;2022-07-21T13:29:32;4.07;;;1.90;;
43990;SDS011;29654;50.784;20.604;2022-07-21T13:34:37;2.75;;;1.80;;
43990;SDS011;29654;50.784;20.604;2022-07-21T13:39:43;2.67;;;1.92;;
43990;SDS011;29654;50.784;20.604;2022-07-21T13:44:47;1.83;;;1.70;;
43990;SDS011;29654;50.784;20.604;2022-07-21T13:49:51;3.83;;;1.77;;
43990;SDS011;29654;50.784;20.604;2022-07-21T13:54:57;4.07;;;2.00;;
43990;SDS011;29654;50.784;20.604;2022-07-21T14:00:00;2.28;;;1.42;;
43990;SDS011;29654;50.784;20.604;2022-07-21T14:05:05;1.85;;;1.75;;
43990;SDS011;29654;50.784;20.604;2022-07-21T14:10:11;1.75;;;1.65;;
43990;SDS011;29654;50.784;20.604;2022-07-21T14:15:14;2.35;;;2.15;;
43990;SDS011;29654;50.784;20.604;2022-07-21T14:20:18;3.15;;;1.75;;
43990;SDS011;29654;50.784;20.604;2022-07-21T14:25:24;4.05;;;1.70;;
43990;SDS011;29654;50.784;20.604;2022-07-21T14:30:28;1.80;;;1.55;;
43990;SDS011;29654;50.784;20.604;2022-07-21T14:35:33;2.40;;;1.77;;
43990;SDS011;29654;50.784;20.604;2022-07-21T14:40:39;1.67;;;1.58;;
43990;SDS011;29654;50.784;20.604;2022-07-21T14:45:43;2.30;;;2.10;;
43990;SDS011;29654;50.784;20.604;2022-07-21T14:50:47;4.95;;;1.92;;
43990;SDS011;29654;50.784;20.604;2022-07-21T14:55:52;1.70;;;1.60;;
43990;SDS011;29654;50.784;20.604;2022-07-21T15:00:56;3.35;;;1.52;;
43990;SDS011;29654;50.784;20.604;2022-07-21T15:06:02;2.25;;;1.70;;
43990;SDS011;29654;50.784;20.604;2022-07-21T15:11:08;2.35;;;1.90;;
43990;SDS011;29654;50.784;20.604;2022-07-21T15:16:12;3.72;;;1.55;;
43990;SDS011;29654;50.784;20.604;2022-07-21T15:21:15;1.50;;;1.40;;
43990;SDS011;29654;50.784;20.604;2022-07-21T15:26:20;4.13;;;2.15;;
43990;SDS011;29654;50.784;20.604;2022-07-21T15:31:24;2.42;;;1.85;;
43990;SDS011;29654;50.784;20.604;2022-07-21T15:36:27;2.08;;;1.77;;
43990;SDS011;29654;50.784;20.604;2022-07-21T15:41:34;3.40;;;1.70;;
43990;SDS011;29654;50.784;20.604;2022-07-21T15:46:38;2.10;;;1.70;;
43990;SDS011;29654;50.784;20.604;2022-07-21T15:51:43;2.00;;;1.73;;
43990;SDS011;29654;50.784;20.604;2022-07-21T15:56:48;2.67;;;2.00;;
43990;SDS011;29654;50.784;20.604;2022-07-21T16:01:51;2.53;;;1.67;;
43990;SDS011;29654;50.784;20.604;2022-07-21T16:06:54;3.40;;;1.90;;
43990;SDS011;29654;50.784;20.604;2022-07-21T16:12:01;2.05;;;1.45;;
43990;SDS011;29654;50.784;20.604;2022-07-21T16:17:06;1.73;;;1.63;;
43990;SDS011;29654;50.784;20.604;2022-07-21T16:22:11;2.60;;;1.58;;
43990;SDS011;29654;50.784;20.604;2022-07-21T16:27:16;1.77;;;1.30;;
43990;SDS011;29654;50.784;20.604;2022-07-21T16:32:21;2.15;;;1.73;;
43990;SDS011;29654;50.784;20.604;2022-07-21T16:37:25;1.90;;;1.73;;
43990;SDS011;29654;50.784;20.604;2022-07-21T16:42:31;3.28;;;1.70;;
43990;SDS011;29654;50.784;20.604;2022-07-21T16:47:35;2.33;;;1.58;;
43990;SDS011;29654;50.784;20.604;2022-07-21T16:52:39;2.80;;;1.73;;
43990;SDS011;29654;50.784;20.604;2022-07-21T16:57:45;3.00;;;1.70;;
43990;SDS011;29654;50.784;20.604;2022-07-21T17:02:48;6.57;;;2.45;;
43990;SDS011;29654;50.784;20.604;2022-07-21T17:07:52;1.98;;;1.70;;
43990;SDS011;29654;50.784;20.604;2022-07-21T17:12:58;1.65;;;1.55;;
43990;SDS011;29654;50.784;20.604;2022-07-21T17:18:03;1.92;;;1.70;;
43990;SDS011;29654;50.784;20.604;2022-07-21T17:23:08;1.95;;;1.75;;
43990;SDS011;29654;50.784;20.604;2022-07-21T17:28:13;3.85;;;1.95;;
43990;SDS011;29654;50.784;20.604;2022-07-21T17:33:16;3.63;;;1.63;;
43990;SDS011;29654;50.784;20.604;2022-07-21T17:38:20;3.00;;;1.70;;
43990;SDS011;29654;50.784;20.604;2022-07-21T17:43:26;4.13;;;1.88;;
43990;SDS011;29654;50.784;20.604;2022-07-21T17:48:31;3.90;;;1.90;;
43990;SDS011;29654;50.784;20.604;2022-07-21T17:53:36;4.20;;;1.60;;
43990;SDS011;29654;50.784;20.604;2022-07-21T17:58:41;2.80;;;2.00;;
43990;SDS011;29654;50.784;20.604;2022-07-21T18:03:45;2.65;;;1.75;;
43990;SDS011;29654;50.784;20.604;2022-07-21T18:08:51;2.33;;;2.13;;
43990;SDS011;29654;50.784;20.604;2022-07-21T18:13:56;3.20;;;1.85;;
43990;SDS011;29654;50.784;20.604;2022-07-21T18:19:01;5.15;;;2.10;;
43990;SDS011;29654;50.784;20.604;2022-07-21T18:24:07;1.63;;;1.52;;
43990;SDS011;29654;50.784;20.604;2022-07-21T18:29:13;5.85;;;2.53;;
43990;SDS011;29654;50.784;20.604;2022-07-21T18:34:17;4.43;;;1.83;;
43990;SDS011;29654;50.784;20.604;2022-07-21T18:39:22;4.20;;;2.47;;
43990;SDS011;29654;50.784;20.604;2022-07-21T18:44:31;4.57;;;2.70;;
43990;SDS011;29654;50.784;20.604;2022-07-21T18:49:36;4.70;;;3.38;;
43990;SDS011;29654;50.784;20.604;2022-07-21T18:54:42;4.10;;;3.58;;
43990;SDS011;29654;50.784;20.604;2022-07-21T18:59:50;3.92;;;3.38;;
43990;SDS011;29654;50.784;20.604;2022-07-21T19:04:55;5.32;;;4.25;;
43990;SDS011;29654;50.784;20.604;2022-07-21T19:10:00;4.93;;;3.70;;
43990;SDS011;29654;50.784;20.604;2022-07-21T19:15:08;5.47;;;3.45;;
43990;SDS011;29654;50.784;20.604;2022-07-21T19:20:15;4.10;;;3.55;;
43990;SDS011;29654;50.784;20.604;2022-07-21T19:25:23;6.78;;;3.60;;
43990;SDS011;29654;50.784;20.604;2022-07-21T19:30:31;3.67;;;2.92;;
43990;SDS011;29654;50.784;20.604;2022-07-21T19:35:37;4.78;;;2.80;;
43990;SDS011;29654;50.784;20.604;2022-07-21T19:40:42;3.65;;;3.10;;
43990;SDS011;29654;50.784;20.604;2022-07-21T19:45:57;2.85;;;2.65;;
43990;SDS011;29654;50.784;20.604;2022-07-21T19:51:04;4.55;;;3.58;;
43990;SDS011;29654;50.784;20.604;2022-07-21T19:56:17;3.20;;;2.33;;
43990;SDS011;29654;50.784;20.604;2022-07-21T20:01:25;2.75;;;2.47;;
43990;SDS011;29654;50.784;20.604;2022-07-21T20:06:32;2.70;;;2.50;;
43990;SDS011;29654;50.784;20.604;2022-07-21T20:11:45;3.83;;;2.67;;
43990;SDS011;29654;50.784;20.604;2022-07-21T20:16:54;3.95;;;2.85;;
43990;SDS011;29654;50.784;20.604;2022-07-21T20:22:01;4.38;;;2.97;;
43990;SDS011;29654;50.784;20.604;2022-07-21T20:27:07;4.15;;;2.70;;
43990;SDS011;29654;50.784;20.604;2022-07-21T20:32:21;3.72;;;3.10;;
43990;SDS011;29654;50.784;20.604;2022-07-21T20:37:30;3.92;;;3.00;;
43990;SDS011;29654;50.784;20.604;2022-07-21T20:42:38;4.28;;;3.15;;
43990;SDS011;29654;50.784;20.604;2022-07-21T20:47:53;5.32;;;3.90;;
43990;SDS011;29654;50.784;20.604;2022-07-21T20:53:02;6.85;;;4.15;;
43990;SDS011;29654;50.784;20.604;2022-07-21T20:58:13;6.40;;;5.47;;
43990;SDS011;29654;50.784;20.604;2022-07-21T21:03:30;7.15;;;5.05;;
43990;SDS011;29654;50.784;20.604;2022-07-21T21:08:37;8.75;;;6.00;;
43990;SDS011;29654;50.784;20.604;2022-07-21T21:13:49;7.85;;;6.38;;
43990;SDS011;29654;50.784;20.604;2022-07-21T21:18:57;9.65;;;6.47;;
43990;SDS011;29654;50.784;20.604;2022-07-21T21:24:02;8.23;;;5.80;;
43990;SDS011;29654;50.784;20.604;2022-07-21T21:29:11;6.78;;;6.03;;
43990;SDS011;29654;50.784;20.604;2022-07-21T21:34:21;6.72;;;5.68;;
43990;SDS011;29654;50.784;20.604;2022-07-21T21:39:27;6.20;;;4.95;;
43990;SDS011;29654;50.784;20.604;2022-07-21T21:44:33;7.43;;;5.32;;
43990;SDS011;29654;50.784;20.604;2022-07-21T21:49:40;5.80;;;5.13;;
43990;SDS011;29654;50.784;20.604;2022-07-21T21:54:48;5.15;;;4.45;;
43990;SDS011;29654;50.784;20.604;2022-07-21T21:59:53;5.10;;;4.63;;
43990;SDS011;29654;50.784;20.604;2022-07-21T22:04:59;5.15;;;4.65;;
43990;SDS011;29654;50.784;20.604;2022-07-21T22:10:04;4.95;;;4.22;;
43990;SDS011;29654;50.784;20.604;2022-07-21T22:15:10;5.82;;;4.63;;
43990;SDS011;29654;50.784;20.604;2022-07-21T22:20:17;4.22;;;3.83;;
43990;SDS011;29654;50.784;20.604;2022-07-21T22:25:21;6.72;;;6.03;;
43990;SDS011;29654;50.784;20.604;2022-07-21T22:30:25;5.35;;;4.85;;
43990;SDS011;29654;50.784;20.604;2022-07-21T22:35:30;5.70;;;5.18;;
43990;SDS011;29654;50.784;20.604;2022-07-21T22:40:34;6.45;;;5.03;;
43990;SDS011;29654;50.784;20.604;2022-07-21T22:45:37;4.53;;;4.10;;
43990;SDS011;29654;50.784;20.604;2022-07-21T22:50:41;6.22;;;4.03;;
43990;SDS011;29654;50.784;20.604;2022-07-21T22:55:44;4.82;;;4.25;;
43990;SDS011;29654;50.784;20.604;2022-07-21T23:00:47;5.78;;;5.28;;
43990;SDS011;29654;50.784;20.604;2022-07-21T23:05:51;5.93;;;4.28;;
43990;SDS011;29654;50.784;20.604;2022-07-21T23:10:54;4.70;;;4.30;;
43990;SDS011;29654;50.784;20.604;2022-07-21T23:15:57;4.45;;;4.05;;
43990;SDS011;29654;50.784;20.604;2022-07-21T23:21:02;3.50;;;3.20;;
43990;SDS011;29654;50.784;20.604;2022-07-21T23:26:05;4.72;;;4.07;;
43990;SDS011;29654;50.784;20.604;2022-07-21T23:31:08;5.57;;;4.43;;
43990;SDS011;29654;50.784;20.604;2022-07-21T23:36:12;5.78;;;4.18;;
43990;SDS011;29654;50.784;20.604;2022-07-21T23:41:16;5.63;;;4.75;;
43990;SDS011;29654;50.784;20.604;2022-07-21T23:46:18;5.47;;;4.55;;
43990;SDS011;29654;50.784;20.604;2022-07-21T23:51:23;4.32;;;3.90;;
43990;SDS011;29654;50.784;20.604;2022-07-21T23:56:26;3.50;;;3.20;;
